Time;durP1;ratioP1;P1;durP2;ratioP2;P2;SDS_P1;SDS_P2;PMS_P1;PMS_P2;Temp;Humidity;BMP_temperature;BMP_pressure;BME280_temperature;BME280_humidity;BME280_pressure;Samples;Min_cycle;Max_cycle;Signal;HPM_P1;HPM_P2
2023/02/04 00:02:57;;;;;;;8.73;3.08;;;;;;;;;;10141749;29;20044;-82
2023/02/04 00:08:00;;;;;;;10.43;1.98;;;;;;;;;;10145843;29;20045;-82
2023/02/04 00:13:05;;;;;;;7.47;2.10;;;;;;;;;;10138584;29;20067;-81
2023/02/04 00:18:08;;;;;;;7.93;2.22;;;;;;;;;;10138382;29;20040;-81
2023/02/04 00:23:12;;;;;;;7.18;2.35;;;;;;;;;;10147557;29;20044;-81
2023/02/04 00:28:16;;;;;;;8.57;2.88;;;;;;;;;;10141396;29;20052;-81
2023/02/04 00:33:19;;;;;;;9.93;2.80;;;;;;;;;;10160282;29;20048;-81
2023/02/04 00:38:23;;;;;;;13.57;3.47;;;;;;;;;;10146760;29;20050;-81
2023/02/04 00:43:27;;;;;;;7.50;2.92;;;;;;;;;;10149319;29;20044;-82
2023/02/04 00:48:31;;;;;;;8.52;2.75;;;;;;;;;;10153315;29;20048;-81
2023/02/04 00:53:34;;;;;;;12.15;3.30;;;;;;;;;;10137256;29;20047;-82
2023/02/04 00:58:39;;;;;;;5.60;2.15;;;;;;;;;;10130673;29;20052;-83
2023/02/04 01:03:43;;;;;;;13.52;3.42;;;;;;;;;;10121419;29;20044;-82
2023/02/04 01:08:46;;;;;;;12.50;3.58;;;;;;;;;;10159077;29;20044;-83
2023/02/04 01:13:51;;;;;;;8.48;2.45;;;;;;;;;;10147601;29;20467;-84
2023/02/04 01:18:54;;;;;;;9.82;3.15;;;;;;;;;;10137239;29;20048;-83
2023/02/04 01:23:59;;;;;;;7.68;2.38;;;;;;;;;;10157228;29;20032;-83
2023/02/04 01:29:04;;;;;;;12.70;2.78;;;;;;;;;;10143429;29;20048;-83
2023/02/04 01:34:08;;;;;;;12.53;2.80;;;;;;;;;;10161041;29;20048;-83
2023/02/04 01:39:12;;;;;;;13.85;3.20;;;;;;;;;;10162463;29;20108;-83
2023/02/04 01:44:17;;;;;;;9.48;3.20;;;;;;;;;;10173372;29;20409;-84
2023/02/04 01:49:20;;;;;;;7.47;2.20;;;;;;;;;;10174483;29;20135;-85
2023/02/04 01:54:24;;;;;;;12.07;2.85;;;;;;;;;;10165681;29;20062;-84
2023/02/04 01:59:29;;;;;;;11.80;3.35;;;;;;;;;;10133781;29;20135;-83
2023/02/04 02:04:37;;;;;;;10.73;3.88;;;;;;;;;;10157333;29;20048;-84
2023/02/04 02:09:41;;;;;;;12.00;3.60;;;;;;;;;;10150765;29;20056;-83
2023/02/04 02:14:46;;;;;;;10.70;3.20;;;;;;;;;;10145104;29;20299;-83
2023/02/04 02:19:49;;;;;;;9.85;2.72;;;;;;;;;;10146036;29;20044;-84
2023/02/04 02:24:54;;;;;;;8.70;3.08;;;;;;;;;;10125161;29;20514;-83
2023/02/04 02:29:57;;;;;;;9.02;3.63;;;;;;;;;;10144044;29;20052;-84
2023/02/04 02:35:01;;;;;;;9.68;2.88;;;;;;;;;;10142989;29;20059;-83
2023/02/04 02:40:09;;;;;;;9.40;2.78;;;;;;;;;;10146353;29;20127;-84
2023/02/04 02:45:22;;;;;;;8.77;2.38;;;;;;;;;;10134390;29;20036;-84
2023/02/04 02:50:29;;;;;;;7.40;2.13;;;;;;;;;;10133861;29;20438;-83
2023/02/04 02:55:36;;;;;;;9.90;2.95;;;;;;;;;;10146491;29;20425;-84
2023/02/04 03:00:40;;;;;;;7.20;2.20;;;;;;;;;;10144523;29;20079;-84
2023/02/04 03:05:46;;;;;;;9.32;2.58;;;;;;;;;;10149143;29;20076;-84
2023/02/04 03:10:52;;;;;;;7.28;2.30;;;;;;;;;;10152893;29;20040;-84
2023/02/04 03:15:56;;;;;;;12.95;3.70;;;;;;;;;;10144751;29;20429;-85
2023/02/04 03:20:59;;;;;;;17.58;3.83;;;;;;;;;;10147199;29;20052;-84
2023/02/04 03:26:05;;;;;;;6.75;2.75;;;;;;;;;;10157816;29;20055;-84
2023/02/04 03:31:09;;;;;;;9.63;3.00;;;;;;;;;;10149744;29;20044;-84
2023/02/04 03:36:12;;;;;;;8.38;2.25;;;;;;;;;;10146736;29;20413;-83
2023/02/04 03:41:17;;;;;;;7.50;2.08;;;;;;;;;;10167835;29;20635;-83
2023/02/04 03:46:22;;;;;;;7.50;2.22;;;;;;;;;;10159380;29;20526;-83
2023/02/04 03:51:26;;;;;;;8.15;2.35;;;;;;;;;;10134724;29;20052;-83
2023/02/04 03:56:30;;;;;;;9.35;2.97;;;;;;;;;;10145434;29;20052;-84
2023/02/04 04:01:33;;;;;;;9.25;2.20;;;;;;;;;;10165917;29;20059;-83
2023/02/04 04:06:37;;;;;;;8.45;2.95;;;;;;;;;;10160699;29;20048;-84
2023/02/04 04:11:42;;;;;;;5.90;1.88;;;;;;;;;;10164526;29;20059;-84
2023/02/04 04:16:46;;;;;;;7.90;2.35;;;;;;;;;;10149620;29;20047;-84
2023/02/04 04:21:49;;;;;;;6.13;1.77;;;;;;;;;;10159246;29;20055;-84
2023/02/04 04:26:54;;;;;;;5.18;1.52;;;;;;;;;;10150076;29;20040;-83
2023/02/04 04:31:57;;;;;;;5.45;1.60;;;;;;;;;;10149819;29;20051;-84
2023/02/04 04:37:00;;;;;;;4.40;1.73;;;;;;;;;;10149233;29;20071;-83
2023/02/04 04:42:05;;;;;;;4.93;1.90;;;;;;;;;;10128052;29;20056;-83
2023/02/04 04:47:08;;;;;;;6.97;2.83;;;;;;;;;;10142737;29;20075;-84
2023/02/04 04:52:12;;;;;;;4.65;1.90;;;;;;;;;;10163615;29;20122;-84
2023/02/04 04:57:16;;;;;;;9.80;2.13;;;;;;;;;;10143369;29;20056;-83
2023/02/04 05:02:20;;;;;;;5.70;1.52;;;;;;;;;;10145595;29;20044;-84
2023/02/04 05:07:26;;;;;;;8.13;2.35;;;;;;;;;;10167361;29;20583;-83
2023/02/04 05:12:30;;;;;;;;;;;;;;;;;;10167592;29;20370;-83
2023/02/04 05:17:34;;;;;;;5.13;1.52;;;;;;;;;;10141647;29;19933;-84
2023/02/04 05:22:37;;;;;;;9.85;2.33;;;;;;;;;;10153460;29;20714;-84
2023/02/04 05:27:42;;;;;;;7.18;2.08;;;;;;;;;;10161335;29;20048;-84
2023/02/04 05:32:45;;;;;;;7.05;1.92;;;;;;;;;;10153058;29;20056;-83
2023/02/04 05:37:49;;;;;;;7.03;1.77;;;;;;;;;;10159288;29;20046;-84
2023/02/04 05:42:53;;;;;;;5.43;1.77;;;;;;;;;;10150691;29;20044;-85
2023/02/04 05:47:57;;;;;;;3.72;1.60;;;;;;;;;;10160773;29;20063;-85
2023/02/04 05:53:00;;;;;;;4.68;1.27;;;;;;;;;;10186438;29;20051;-85
2023/02/04 05:58:05;;;;;;;5.07;1.50;;;;;;;;;;10167969;29;20051;-84
2023/02/04 06:03:08;;;;;;;6.80;1.75;;;;;;;;;;10142860;29;20075;-84
2023/02/04 06:08:14;;;;;;;5.00;1.33;;;;;;;;;;10155658;29;20136;-84
2023/02/04 06:13:19;;;;;;;4.50;1.88;;;;;;;;;;10141911;29;20063;-84
2023/02/04 06:18:22;;;;;;;5.63;1.63;;;;;;;;;;10168342;28;20438;-83
2023/02/04 06:23:26;;;;;;;3.85;1.25;;;;;;;;;;10136135;29;20054;-84
2023/02/04 06:28:30;;;;;;;5.35;1.25;;;;;;;;;;10141778;29;20525;-83
2023/02/04 06:33:34;;;;;;;7.65;1.65;;;;;;;;;;10140916;29;20051;-83
2023/02/04 06:38:37;;;;;;;5.65;1.42;;;;;;;;;;10146439;29;20050;-83
2023/02/04 06:43:42;;;;;;;3.28;1.40;;;;;;;;;;10162724;29;20058;-82
2023/02/04 06:48:45;;;;;;;4.18;1.40;;;;;;;;;;10139323;29;20320;-85
2023/02/04 06:53:51;;;;;;;7.53;2.20;;;;;;;;;;10137460;29;20051;-82
2023/02/04 06:58:55;;;;;;;6.75;2.50;;;;;;;;;;10173492;28;20063;-82
2023/02/04 07:03:59;;;;;;;4.15;2.20;;;;;;;;;;10141025;29;20040;-82
2023/02/04 07:09:05;;;;;;;5.55;1.92;;;;;;;;;;10147532;29;20048;-82
2023/02/04 07:14:12;;;;;;;5.00;1.73;;;;;;;;;;10146499;29;20103;-82
2023/02/04 07:19:18;;;;;;;4.80;1.83;;;;;;;;;;10158396;29;20052;-81
2023/02/04 07:24:23;;;;;;;5.43;2.08;;;;;;;;;;10142317;29;20048;-82
2023/02/04 07:29:28;;;;;;;4.60;1.58;;;;;;;;;;10142742;29;20480;-82
2023/02/04 07:34:31;;;;;;;2.97;1.55;;;;;;;;;;10147023;29;20040;-82
2023/02/04 07:39:35;;;;;;;6.03;1.70;;;;;;;;;;10150517;29;20399;-82
2023/02/04 07:44:39;;;;;;;8.07;2.58;;;;;;;;;;10153651;29;20047;-81
2023/02/04 07:49:43;;;;;;;7.53;3.88;;;;;;;;;;10160385;29;20052;-84
2023/02/04 07:54:46;;;;;;;8.82;4.38;;;;;;;;;;10164477;29;20040;-81
2023/02/04 07:59:50;;;;;;;7.90;3.72;;;;;;;;;;10138003;29;20059;-82
2023/02/04 08:04:54;;;;;;;10.18;3.10;;;;;;;;;;10153606;29;20047;-79
2023/02/04 08:09:57;;;;;;;7.03;2.30;;;;;;;;;;10149254;29;20389;-82
2023/02/04 08:15:02;;;;;;;4.00;2.00;;;;;;;;;;10146968;29;20048;-81
2023/02/04 08:20:08;;;;;;;6.38;2.63;;;;;;;;;;10144099;29;20664;-81
2023/02/04 08:25:12;;;;;;;13.90;2.65;;;;;;;;;;10139156;29;20147;-80
2023/02/04 08:30:18;;;;;;;6.25;2.25;;;;;;;;;;10138201;29;20557;-81
2023/02/04 08:35:21;;;;;;;;;;;;;;;;;;10140617;29;20456;-83
2023/02/04 08:40:25;;;;;;;7.40;2.28;;;;;;;;;;10156727;29;20600;-80
2023/02/04 08:45:30;;;;;;;10.77;2.92;;;;;;;;;;10160574;29;20044;-81
2023/02/04 08:50:33;;;;;;;6.68;2.88;;;;;;;;;;10171926;29;20062;-81
2023/02/04 08:55:37;;;;;;;13.23;4.60;;;;;;;;;;10184579;29;20052;-80
2023/02/04 09:00:41;;;;;;;12.13;4.30;;;;;;;;;;10124651;29;20044;-82
2023/02/04 09:05:46;;;;;;;9.55;3.17;;;;;;;;;;10140661;29;20707;-81
2023/02/04 09:10:49;;;;;;;11.52;3.55;;;;;;;;;;10140667;29;20043;-81
2023/02/04 09:15:54;;;;;;;7.82;3.10;;;;;;;;;;10150214;29;20044;-81
2023/02/04 09:20:57;;;;;;;12.50;4.50;;;;;;;;;;10145003;29;20040;-81
2023/02/04 09:26:03;;;;;;;10.82;3.92;;;;;;;;;;10145183;29;20044;-80
2023/02/04 09:31:07;;;;;;;9.47;3.20;;;;;;;;;;10153636;29;20040;-80
2023/02/04 09:36:11;;;;;;;13.55;3.90;;;;;;;;;;10142575;29;20072;-80
2023/02/04 09:41:15;;;;;;;14.00;4.28;;;;;;;;;;10153388;29;20135;-80
2023/02/04 09:46:22;;;;;;;19.25;4.68;;;;;;;;;;10143818;29;20071;-82
2023/02/04 09:51:27;;;;;;;12.38;4.22;;;;;;;;;;10149352;29;20036;-81
2023/02/04 09:56:31;;;;;;;12.13;3.03;;;;;;;;;;10144103;29;20059;-81
2023/02/04 10:01:36;;;;;;;6.03;2.33;;;;;;;;;;10164984;29;20546;-80
2023/02/04 10:06:40;;;;;;;13.55;3.58;;;;;;;;;;10142997;29;20383;-81
2023/02/04 10:11:45;;;;;;;14.52;4.85;;;;;;;;;;10148867;29;21502;-81
2023/02/04 10:16:54;;;;;;;11.73;3.23;;;;;;;;;;10145414;29;20048;-81
2023/02/04 10:22:03;;;;;;;8.13;2.65;;;;;;;;;;10133925;29;20036;-82
2023/02/04 10:27:11;;;;;;;11.95;3.30;;;;;;;;;;10121299;29;20062;-81
2023/02/04 10:32:32;;;;;;;7.93;2.58;;;;;;;;;;10152826;29;20489;-82
2023/02/04 10:37:36;;;;;;;8.95;2.85;;;;;;;;;;10117680;29;20636;-82
2023/02/04 10:42:50;;;;;;;9.75;2.90;;;;;;;;;;10146304;29;20052;-81
2023/02/04 10:47:58;;;;;;;5.72;2.30;;;;;;;;;;10129512;29;20071;-82
2023/02/04 10:58:24;;;;;;;9.52;2.05;;;;;;;;;;10059884;29;20055;-82
2023/02/04 11:03:30;;;;;;;9.02;3.15;;;;;;;;;;10130088;29;20044;-82
2023/02/04 11:08:36;;;;;;;7.18;2.10;;;;;;;;;;10122886;29;20789;-82
2023/02/04 11:13:41;;;;;;;6.50;2.22;;;;;;;;;;10135706;29;20067;-82
2023/02/04 11:18:48;;;;;;;11.67;3.77;;;;;;;;;;10139704;29;20052;-82
2023/02/04 11:24:03;;;;;;;6.43;2.28;;;;;;;;;;10137803;29;20292;-81
2023/02/04 11:29:29;;;;;;;9.07;2.72;;;;;;;;;;10129820;29;20048;-82
2023/02/04 11:34:47;;;;;;;8.80;2.53;;;;;;;;;;10137887;29;20832;-81
2023/02/04 11:39:50;;;;;;;13.75;3.10;;;;;;;;;;10125101;29;20789;-79
2023/02/04 11:44:55;;;;;;;9.18;2.70;;;;;;;;;;10134984;29;20055;-80
2023/02/04 11:50:03;;;;;;;7.15;2.28;;;;;;;;;;10134300;29;20040;-79
2023/02/04 11:55:10;;;;;;;5.13;1.70;;;;;;;;;;10139262;29;20883;-79
2023/02/04 12:00:15;;;;;;;4.65;1.75;;;;;;;;;;10138119;29;20040;-79
2023/02/04 12:05:20;;;;;;;9.10;2.80;;;;;;;;;;10160789;29;20149;-79
2023/02/04 12:10:25;;;;;;;7.53;1.85;;;;;;;;;;10162558;29;20670;-79
2023/02/04 12:15:34;;;;;;;5.45;1.52;;;;;;;;;;10146768;29;20052;-79
2023/02/04 12:20:39;;;;;;;5.68;1.52;;;;;;;;;;10148317;29;20589;-80
2023/02/04 12:25:42;;;;;;;6.72;2.25;;;;;;;;;;10161111;29;20566;-80
2023/02/04 12:30:46;;;;;;;7.20;2.33;;;;;;;;;;10146527;29;20051;-81
2023/02/04 12:35:50;;;;;;;8.18;2.15;;;;;;;;;;10143716;29;20460;-80
2023/02/04 12:40:54;;;;;;;9.07;2.42;;;;;;;;;;10146372;29;20039;-81
2023/02/04 12:45:57;;;;;;;11.18;3.05;;;;;;;;;;10147160;29;20055;-81
2023/02/04 12:51:01;;;;;;;6.32;1.77;;;;;;;;;;10147976;29;20043;-81
2023/02/04 12:56:06;;;;;;;8.73;2.15;;;;;;;;;;10152273;29;20048;-80
2023/02/04 13:01:09;;;;;;;7.43;2.47;;;;;;;;;;10155007;29;20135;-81
2023/02/04 13:06:14;;;;;;;9.02;2.92;;;;;;;;;;10154182;29;20036;-81
2023/02/04 13:11:17;;;;;;;10.90;2.85;;;;;;;;;;10141575;29;20450;-80
2023/02/04 13:16:22;;;;;;;12.27;3.97;;;;;;;;;;10134029;29;20059;-80
2023/02/04 13:21:27;;;;;;;9.63;2.83;;;;;;;;;;10143722;29;20048;-80
2023/02/04 13:26:30;;;;;;;9.15;2.65;;;;;;;;;;10129022;29;20060;-82
2023/02/04 13:31:34;;;;;;;16.13;4.35;;;;;;;;;;10150152;29;20055;-82
2023/02/04 13:36:38;;;;;;;5.78;2.25;;;;;;;;;;10134177;29;20115;-82
2023/02/04 13:41:42;;;;;;;5.95;2.08;;;;;;;;;;10149601;29;20048;-82
2023/02/04 13:46:45;;;;;;;12.25;2.72;;;;;;;;;;10170273;29;20060;-82
2023/02/04 13:51:49;;;;;;;6.85;2.33;;;;;;;;;;10153087;29;20044;-80
2023/02/04 13:56:53;;;;;;;10.25;2.97;;;;;;;;;;10145426;29;20545;-81
2023/02/04 14:01:59;;;;;;;11.38;3.38;;;;;;;;;;10147304;29;20063;-80
2023/02/04 14:07:04;;;;;;;8.30;2.47;;;;;;;;;;10150536;29;20402;-81
2023/02/04 14:12:08;;;;;;;10.20;2.47;;;;;;;;;;10156995;29;20044;-81
2023/02/04 14:17:11;;;;;;;13.45;3.92;;;;;;;;;;10147100;29;20071;-82
2023/02/04 14:22:15;;;;;;;8.18;2.30;;;;;;;;;;10134834;29;20606;-81
2023/02/04 14:27:19;;;;;;;10.32;2.63;;;;;;;;;;10141783;29;20072;-80
2023/02/04 14:32:22;;;;;;;9.82;2.38;;;;;;;;;;10160386;29;20059;-81
2023/02/04 14:37:27;;;;;;;8.00;2.35;;;;;;;;;;10140950;29;20055;-81
2023/02/04 14:42:31;;;;;;;5.15;1.77;;;;;;;;;;10147214;29;20040;-81
2023/02/04 14:47:34;;;;;;;6.10;1.90;;;;;;;;;;10148746;29;20063;-82
2023/02/04 14:52:39;;;;;;;6.63;2.53;;;;;;;;;;10127173;29;20128;-80
2023/02/04 14:57:42;;;;;;;5.88;2.25;;;;;;;;;;10136347;29;20410;-79
2023/02/04 15:02:46;;;;;;;8.25;2.70;;;;;;;;;;10144698;29;20413;-80
2023/02/04 15:07:51;;;;;;;10.88;2.70;;;;;;;;;;10135536;29;20633;-80
2023/02/04 15:12:55;;;;;;;8.02;2.80;;;;;;;;;;10147628;29;20051;-82
2023/02/04 15:17:58;;;;;;;6.50;2.45;;;;;;;;;;10169575;29;20565;-81
2023/02/04 15:23:03;;;;;;;10.98;2.65;;;;;;;;;;10160795;29;20525;-80
2023/02/04 15:28:07;;;;;;;6.82;1.92;;;;;;;;;;10146958;29;20044;-81
2023/02/04 15:33:12;;;;;;;3.07;1.40;;;;;;;;;;10105592;29;20051;-81
2023/02/04 15:38:17;;;;;;;7.28;2.03;;;;;;;;;;10120434;29;20060;-81
2023/02/04 15:43:20;;;;;;;7.07;2.08;;;;;;;;;;10098364;29;20059;-81
2023/02/04 15:48:24;;;;;;;4.57;1.35;;;;;;;;;;10103648;29;20045;-80
2023/02/04 15:53:29;;;;;;;5.00;1.55;;;;;;;;;;10110535;29;20766;-80
2023/02/04 15:58:33;;;;;;;3.78;1.70;;;;;;;;;;10100124;29;20052;-80
2023/02/04 16:03:36;;;;;;;9.63;4.10;;;;;;;;;;10114456;29;20517;-80
2023/02/04 16:08:41;;;;;;;9.40;3.60;;;;;;;;;;10137350;29;20151;-80
2023/02/04 16:13:44;;;;;;;10.18;2.60;;;;;;;;;;10146459;29;20047;-82
2023/02/04 16:18:48;;;;;;;6.00;2.80;;;;;;;;;;10157038;29;20051;-81
2023/02/04 16:23:52;;;;;;;12.13;4.30;;;;;;;;;;10146394;29;20048;-81
2023/02/04 16:28:56;;;;;;;14.38;9.43;;;;;;;;;;10142816;29;20111;-80
2023/02/04 16:33:59;;;;;;;9.25;5.60;;;;;;;;;;10146154;29;20040;-81
2023/02/04 16:39:04;;;;;;;5.53;2.25;;;;;;;;;;10142875;29;20148;-80
2023/02/04 16:44:07;;;;;;;3.38;1.92;;;;;;;;;;10141039;29;20044;-81
2023/02/04 16:49:11;;;;;;;6.60;1.95;;;;;;;;;;10125642;29;20130;-82
2023/02/04 16:54:15;;;;;;;5.57;2.13;;;;;;;;;;10148161;29;20044;-82
2023/02/04 16:59:19;;;;;;;2.40;1.80;;;;;;;;;;10166379;29;20048;-82
2023/02/04 17:04:23;;;;;;;4.82;2.03;;;;;;;;;;10139000;29;20602;-82
2023/02/04 17:09:28;;;;;;;5.32;2.00;;;;;;;;;;10137482;29;20056;-82
2023/02/04 17:14:32;;;;;;;5.50;1.90;;;;;;;;;;10157904;29;20044;-82
2023/02/04 17:19:35;;;;;;;3.42;1.80;;;;;;;;;;10138804;29;20076;-82
2023/02/04 17:24:42;;;;;;;2.97;1.27;;;;;;;;;;10160395;29;20131;-83
2023/02/04 17:29:45;;;;;;;4.35;2.15;;;;;;;;;;10155026;29;20051;-82
2023/02/04 17:34:49;;;;;;;6.80;2.40;;;;;;;;;;10159718;29;20219;-82
2023/02/04 17:39:54;;;;;;;8.23;3.15;;;;;;;;;;10141607;29;20131;-81
2023/02/04 17:44:57;;;;;;;6.60;2.92;;;;;;;;;;10142022;29;20131;-81
2023/02/04 17:50:02;;;;;;;7.80;3.03;;;;;;;;;;10128545;29;20044;-81
2023/02/04 17:55:17;;;;;;;7.45;3.92;;;;;;;;;;10135118;29;20070;-81
2023/02/04 18:00:24;;;;;;;7.85;3.78;;;;;;;;;;10134977;29;20044;-81
2023/02/04 18:05:29;;;;;;;10.15;4.53;;;;;;;;;;10135865;29;20060;-81
2023/02/04 18:10:38;;;;;;;12.02;6.07;;;;;;;;;;10163708;29;20052;-81
2023/02/04 18:15:44;;;;;;;14.55;7.25;;;;;;;;;;10153930;29;20056;-80
2023/02/04 18:20:48;;;;;;;18.48;7.93;;;;;;;;;;10137464;29;20059;-81
2023/02/04 18:25:52;;;;;;;16.02;6.78;;;;;;;;;;10138426;29;20048;-81
2023/02/04 18:31:18;;;;;;;10.60;6.00;;;;;;;;;;10148338;29;20127;-80
2023/02/04 18:36:22;;;;;;;9.20;4.85;;;;;;;;;;10155315;29;20054;-80
2023/02/04 18:41:32;;;;;;;14.32;7.68;;;;;;;;;;10160833;29;20279;-80
2023/02/04 18:46:41;;;;;;;16.65;8.13;;;;;;;;;;10131200;29;20059;-80
2023/02/04 18:51:45;;;;;;;13.27;6.57;;;;;;;;;;10143875;29;20835;-81
2023/02/04 18:56:52;;;;;;;9.13;4.80;;;;;;;;;;10130247;29;20054;-80
2023/02/04 19:01:58;;;;;;;12.50;4.85;;;;;;;;;;10135979;29;20096;-80
2023/02/04 19:07:05;;;;;;;9.73;4.60;;;;;;;;;;10145778;29;20424;-80
2023/02/04 19:12:23;;;;;;;9.35;4.15;;;;;;;;;;10163079;28;20051;-79
2023/02/04 19:17:28;;;;;;;17.35;7.07;;;;;;;;;;10143479;29;20052;-79
2023/02/04 19:22:42;;;;;;;11.95;6.13;;;;;;;;;;10142928;29;20518;-80
2023/02/04 19:27:50;;;;;;;11.88;6.05;;;;;;;;;;10142939;29;20465;-80
2023/02/04 19:32:56;;;;;;;14.00;6.22;;;;;;;;;;10144342;29;20032;-80
2023/02/04 19:38:01;;;;;;;11.63;4.53;;;;;;;;;;10143433;29;20066;-79
2023/02/04 19:43:19;;;;;;;11.35;4.88;;;;;;;;;;10155524;29;20048;-80
2023/02/04 19:48:27;;;;;;;14.57;6.10;;;;;;;;;;10158795;29;20068;-81
2023/02/04 19:53:31;;;;;;;8.15;4.25;;;;;;;;;;10161966;29;20134;-80
2023/02/04 19:58:42;;;;;;;8.65;4.38;;;;;;;;;;10156162;29;20048;-80
2023/02/04 20:03:46;;;;;;;8.80;5.45;;;;;;;;;;10144631;29;20059;-80
2023/02/04 20:08:55;;;;;;;7.63;4.43;;;;;;;;;;10152683;29;20044;-82
2023/02/04 20:14:22;;;;;;;7.47;4.38;;;;;;;;;;10147757;29;20697;-81
2023/02/04 20:19:28;;;;;;;10.65;4.75;;;;;;;;;;10159580;29;20079;-79
2023/02/04 20:24:36;;;;;;;8.27;3.60;;;;;;;;;;10146590;29;20087;-79
2023/02/04 20:29:41;;;;;;;9.20;3.45;;;;;;;;;;10161956;29;20044;-81
2023/02/04 20:34:44;;;;;;;9.13;3.60;;;;;;;;;;10140284;29;20044;-80
2023/02/04 20:39:47;;;;;;;5.25;2.72;;;;;;;;;;10139350;29;20184;-79
2023/02/04 20:44:53;;;;;;;8.35;3.35;;;;;;;;;;10153537;29;20453;-80
2023/02/04 20:49:57;;;;;;;5.68;3.30;;;;;;;;;;10156794;29;20044;-80
2023/02/04 20:55:01;;;;;;;6.85;3.47;;;;;;;;;;10164513;29;20036;-79
2023/02/04 21:00:14;;;;;;;7.65;3.97;;;;;;;;;;10148182;29;20048;-79
2023/02/04 21:05:23;;;;;;;10.20;4.72;;;;;;;;;;10148088;29;20044;-79
2023/02/04 21:10:27;;;;;;;8.07;4.47;;;;;;;;;;10158622;29;20052;-81
2023/02/04 21:15:32;;;;;;;10.77;5.15;;;;;;;;;;10153143;29;20079;-80
2023/02/04 21:20:36;;;;;;;9.88;4.57;;;;;;;;;;10146320;29;20494;-79
2023/02/04 21:25:39;;;;;;;9.52;5.15;;;;;;;;;;10128455;29;20088;-80
2023/02/04 21:30:44;;;;;;;10.15;5.00;;;;;;;;;;10145369;29;20309;-79
2023/02/04 21:35:48;;;;;;;7.93;3.47;;;;;;;;;;10163304;29;20040;-81
2023/02/04 21:40:51;;;;;;;7.55;4.15;;;;;;;;;;10167658;29;20059;-81
2023/02/04 21:45:56;;;;;;;6.82;3.63;;;;;;;;;;10171948;29;20044;-81
2023/02/04 21:50:59;;;;;;;7.68;3.92;;;;;;;;;;10147990;29;20075;-83
2023/02/04 21:56:03;;;;;;;7.03;3.67;;;;;;;;;;10166623;29;20594;-81
2023/02/04 22:01:09;;;;;;;10.50;4.75;;;;;;;;;;10152183;29;20078;-82
2023/02/04 22:06:12;;;;;;;8.70;4.10;;;;;;;;;;10177945;29;20044;-81
2023/02/04 22:11:15;;;;;;;8.45;4.05;;;;;;;;;;10142003;29;20052;-80
2023/02/04 22:16:20;;;;;;;11.52;5.25;;;;;;;;;;10133292;29;20688;-80
2023/02/04 22:21:24;;;;;;;8.27;4.75;;;;;;;;;;10149027;29;20107;-79
2023/02/04 22:26:27;;;;;;;8.68;4.40;;;;;;;;;;10150238;29;20052;-82
2023/02/04 22:31:31;;;;;;;8.13;3.92;;;;;;;;;;10154523;29;20165;-83
2023/02/04 22:36:35;;;;;;;9.35;4.93;;;;;;;;;;10163646;29;20052;-81
2023/02/04 22:41:39;;;;;;;8.63;4.72;;;;;;;;;;10170578;29;20703;-83
2023/02/04 22:46:44;;;;;;;7.53;4.53;;;;;;;;;;10160166;29;20047;-82
2023/02/04 22:51:49;;;;;;;5.53;3.97;;;;;;;;;;10163692;29;20063;-81
2023/02/04 22:56:53;;;;;;;7.90;4.60;;;;;;;;;;10148882;29;20068;-82
2023/02/04 23:01:58;;;;;;;9.25;5.25;;;;;;;;;;10159807;29;20044;-82
2023/02/04 23:07:03;;;;;;;9.63;4.63;;;;;;;;;;10163575;29;20040;-82
2023/02/04 23:12:12;;;;;;;8.73;4.87;;;;;;;;;;10597286;23;20051;-82
2023/02/04 23:17:18;;;;;;;7.68;4.05;;;;;;;;;;10287534;28;20050;-82
2023/02/04 23:22:21;;;;;;;5.28;2.75;;;;;;;;;;10267667;28;20288;-87
2023/02/04 23:27:25;;;;;;;4.93;2.72;;;;;;;;;;10274096;28;20058;-85
2023/02/04 23:32:32;;;;;;;6.20;3.30;;;;;;;;;;10280263;28;20133;-84
2023/02/04 23:37:35;;;;;;;5.75;3.20;;;;;;;;;;10268251;28;20122;-84
2023/02/04 23:42:39;;;;;;;7.30;3.88;;;;;;;;;;10268252;28;20337;-83
2023/02/04 23:47:44;;;;;;;7.05;3.83;;;;;;;;;;10287234;28;20053;-81
2023/02/04 23:52:47;;;;;;;7.80;3.65;;;;;;;;;;10279421;28;20058;-82
2023/02/04 23:57:51;;;;;;;8.38;3.97;;;;;;;;;;10284791;28;20042;-84
